Time;durP1;ratioP1;P1;durP2;ratioP2;P2;SDS_P1;SDS_P2;PMS_P1;PMS_P2;Temp;Humidity;BMP_temperature;BMP_pressure;BME280_temperature;BME280_humidity;BME280_pressure;Samples;Min_cycle;Max_cycle;Signal;HPM_P1;HPM_P2
2021/08/15 00:02:04;;;;;;;1999.90;999.90;;;20.80;99.90;;;;;;5013336;28;20022;-85
2021/08/15 00:04:30;;;;;;;1999.90;999.90;;;20.80;99.90;;;;;;5012986;28;20050;-86
2021/08/15 00:06:55;;;;;;;1999.90;999.90;;;20.80;99.90;;;;;;5013367;28;20048;-86
2021/08/15 00:09:21;;;;;;;1999.90;999.90;;;20.80;99.90;;;;;;5013275;28;20026;-85
2021/08/15 00:11:48;;;;;;;1999.90;999.90;;;20.80;99.90;;;;;;5013244;28;20091;-85
2021/08/15 00:14:13;;;;;;;1999.90;999.90;;;20.80;99.90;;;;;;5013300;28;20055;-85
2021/08/15 00:16:39;;;;;;;1999.90;999.90;;;20.70;99.90;;;;;;5013183;28;20116;-87
2021/08/15 00:19:05;;;;;;;1999.90;999.90;;;20.80;99.90;;;;;;5013023;28;20030;-86
2021/08/15 00:21:33;;;;;;;1999.90;999.90;;;20.80;99.90;;;;;;5013112;28;20388;-85
2021/08/15 00:23:59;;;;;;;1999.90;999.90;;;20.70;99.90;;;;;;5013021;28;20399;-86
2021/08/15 00:26:25;;;;;;;1999.90;999.90;;;20.70;99.90;;;;;;5013143;28;20034;-87
2021/08/15 00:28:51;;;;;;;1999.90;999.90;;;20.70;99.90;;;;;;5013263;28;20041;-87
2021/08/15 00:31:17;;;;;;;1999.90;999.90;;;20.70;99.90;;;;;;5013060;28;20030;-87
2021/08/15 00:33:43;;;;;;;1999.90;999.90;;;20.70;99.90;;;;;;5013947;28;20028;-87
2021/08/15 00:36:08;;;;;;;1999.90;999.90;;;20.70;99.90;;;;;;5013007;28;20088;-87
2021/08/15 00:38:34;;;;;;;1999.90;999.90;;;20.70;99.90;;;;;;5013091;28;20022;-86
2021/08/15 00:41:01;;;;;;;1999.90;999.90;;;20.80;99.90;;;;;;5014404;28;20026;-88
2021/08/15 00:43:28;;;;;;;1999.90;999.90;;;20.70;99.90;;;;;;5016758;28;20022;-87
2021/08/15 00:45:54;;;;;;;1999.90;999.90;;;20.70;99.90;;;;;;5016832;28;20038;-86
2021/08/15 00:48:19;;;;;;;1999.90;999.90;;;20.60;99.90;;;;;;5017008;28;20125;-86
2021/08/15 00:50:45;;;;;;;1999.90;999.90;;;20.60;99.90;;;;;;5017148;28;20025;-87
2021/08/15 00:53:11;;;;;;;1999.90;999.90;;;20.60;99.90;;;;;;5016728;28;20022;-87
2021/08/15 00:55:37;;;;;;;1999.90;999.90;;;20.60;99.90;;;;;;5016437;28;20025;-87
2021/08/15 00:58:05;;;;;;;1999.90;999.90;;;20.60;99.90;;;;;;5016688;28;20021;-87
2021/08/15 01:00:30;;;;;;;1999.90;999.90;;;20.50;99.90;;;;;;5016441;28;20037;-87
2021/08/15 01:03:01;;;;;;;1999.90;999.90;;;20.50;99.90;;;;;;5016311;28;20045;-86
2021/08/15 01:05:27;;;;;;;1999.90;999.90;;;20.50;99.90;;;;;;5016305;28;20084;-87
2021/08/15 01:07:53;;;;;;;1999.90;999.90;;;20.40;99.90;;;;;;5016386;28;20029;-87
2021/08/15 01:10:19;;;;;;;1999.90;999.90;;;20.40;99.90;;;;;;5016497;28;20034;-86
2021/08/15 01:12:45;;;;;;;1999.90;999.90;;;20.40;99.90;;;;;;5016131;28;20113;-86
2021/08/15 01:15:12;;;;;;;1999.90;999.90;;;20.30;99.90;;;;;;5016345;28;20030;-87
2021/08/15 01:17:39;;;;;;;1999.90;999.90;;;20.30;99.90;;;;;;5016124;28;20029;-88
2021/08/15 01:20:06;;;;;;;1999.90;999.90;;;20.30;99.90;;;;;;5016027;28;20026;-87
2021/08/15 01:22:35;;;;;;;1999.90;999.90;;;20.40;99.90;;;;;;5016055;28;20052;-87
2021/08/15 01:25:05;;;;;;;1999.90;999.90;;;20.40;99.90;;;;;;5015954;28;20814;-87
2021/08/15 01:27:40;;;;;;;1999.90;999.90;;;20.30;99.90;;;;;;5016014;28;20033;-86
2021/08/15 01:30:09;;;;;;;1999.90;999.90;;;20.30;99.90;;;;;;5015795;28;20481;-86
2021/08/15 01:32:35;;;;;;;1999.90;999.90;;;20.30;99.90;;;;;;5015875;28;20037;-86
2021/08/15 01:35:02;;;;;;;1999.90;999.90;;;20.30;99.90;;;;;;5017022;28;20028;-86
2021/08/15 01:37:29;;;;;;;1999.90;999.90;;;20.30;99.90;;;;;;5015982;28;20033;-86
2021/08/15 01:39:55;;;;;;;1999.90;999.90;;;20.30;99.90;;;;;;5016804;28;20026;-86
2021/08/15 01:42:20;;;;;;;1999.90;999.90;;;20.30;99.90;;;;;;5015604;28;20033;-86
2021/08/15 01:44:46;;;;;;;1999.90;999.90;;;20.30;99.90;;;;;;5015564;28;20030;-87
2021/08/15 01:47:12;;;;;;;1999.90;999.90;;;20.30;99.90;;;;;;5015809;28;20037;-85
2021/08/15 01:49:37;;;;;;;1999.90;999.90;;;20.30;99.90;;;;;;5015607;28;20045;-87
2021/08/15 01:52:03;;;;;;;1999.90;999.90;;;20.30;99.90;;;;;;5015631;28;20033;-86
2021/08/15 01:54:29;;;;;;;1999.90;999.90;;;20.30;99.90;;;;;;5015686;28;20029;-86
2021/08/15 01:56:55;;;;;;;1999.90;999.90;;;20.30;99.90;;;;;;5015675;28;20033;-87
2021/08/15 01:59:20;;;;;;;1999.90;999.90;;;20.40;99.90;;;;;;5015653;28;20116;-86
2021/08/15 02:01:46;;;;;;;1999.90;999.90;;;20.40;99.90;;;;;;5015346;28;20049;-86
2021/08/15 02:04:13;;;;;;;1999.90;999.90;;;20.40;99.90;;;;;;5014895;28;20053;-86
2021/08/15 02:06:38;;;;;;;1999.90;999.90;;;20.40;99.90;;;;;;5015346;28;20065;-86
2021/08/15 02:09:04;;;;;;;1999.90;999.90;;;20.40;99.90;;;;;;5015318;28;20081;-86
2021/08/15 02:11:30;;;;;;;1999.90;999.90;;;20.40;99.90;;;;;;5015039;28;20080;-86
2021/08/15 02:13:55;;;;;;;1999.90;999.90;;;20.40;99.90;;;;;;5015128;28;20157;-86
2021/08/15 02:16:21;;;;;;;1999.90;999.90;;;20.40;99.90;;;;;;5015017;28;20079;-86
2021/08/15 02:18:47;;;;;;;1999.90;999.90;;;20.40;99.90;;;;;;5015082;28;20025;-85
2021/08/15 02:21:12;;;;;;;1999.90;999.90;;;20.40;99.90;;;;;;5014983;28;20037;-87
2021/08/15 02:23:38;;;;;;;1999.90;999.90;;;20.40;99.90;;;;;;5014813;28;20112;-85
2021/08/15 02:26:04;;;;;;;1999.90;999.90;;;20.40;99.90;;;;;;5014885;28;20037;-87
2021/08/15 02:28:29;;;;;;;1999.90;999.90;;;20.40;99.90;;;;;;5014844;28;20112;-86
2021/08/15 02:30:55;;;;;;;1999.90;999.90;;;20.50;99.90;;;;;;5016237;28;20026;-86
2021/08/15 02:33:21;;;;;;;1999.90;999.90;;;20.50;99.90;;;;;;5014504;28;20560;-86
2021/08/15 02:35:46;;;;;;;1999.90;999.90;;;20.40;99.90;;;;;;5014698;28;20485;-86
2021/08/15 02:38:12;;;;;;;1999.90;999.90;;;20.60;99.90;;;;;;5014591;28;20477;-85
2021/08/15 02:40:38;;;;;;;1999.90;999.90;;;20.50;99.90;;;;;;5014579;28;20030;-87
2021/08/15 02:43:04;;;;;;;1999.90;999.90;;;20.60;99.90;;;;;;5015661;28;20493;-86
2021/08/15 02:45:29;;;;;;;1999.90;999.90;;;20.60;99.90;;;;;;5014389;28;20034;-87
2021/08/15 02:47:55;;;;;;;1999.90;999.90;;;20.70;99.90;;;;;;5014567;28;20045;-86
2021/08/15 02:50:22;;;;;;;1999.90;999.90;;;20.60;99.90;;;;;;5014324;28;20367;-87
2021/08/15 02:52:48;;;;;;;1999.90;999.90;;;20.60;99.90;;;;;;5014350;28;20018;-86
2021/08/15 02:55:14;;;;;;;1999.90;999.90;;;20.60;99.90;;;;;;5014487;28;20028;-86
2021/08/15 02:57:40;;;;;;;1999.90;999.90;;;20.60;99.90;;;;;;5014595;28;20026;-86
2021/08/15 03:00:08;;;;;;;1999.90;999.90;;;20.50;99.90;;;;;;5014657;28;20025;-86
2021/08/15 03:02:33;;;;;;;1999.90;999.90;;;20.60;99.90;;;;;;5014285;28;20025;-86
2021/08/15 03:04:59;;;;;;;1999.90;999.90;;;20.50;99.90;;;;;;5013663;28;20504;-87
2021/08/15 03:07:26;;;;;;;1999.90;999.90;;;20.60;99.90;;;;;;5014368;28;20488;-87
2021/08/15 03:09:52;;;;;;;1999.90;999.90;;;20.60;99.90;;;;;;5014188;28;20030;-87
2021/08/15 03:12:18;;;;;;;1999.90;999.90;;;20.60;99.90;;;;;;5014255;28;20058;-87
2021/08/15 03:14:44;;;;;;;1999.90;999.90;;;20.60;99.90;;;;;;5014230;28;20026;-87
2021/08/15 03:17:10;;;;;;;1999.90;999.90;;;20.60;99.90;;;;;;5014012;28;20441;-87
2021/08/15 03:19:36;;;;;;;1999.90;999.90;;;20.60;99.90;;;;;;5013833;28;20053;-87
2021/08/15 03:22:05;;;;;;;1999.90;999.90;;;20.60;99.90;;;;;;5013784;28;20974;-87
2021/08/15 03:24:30;;;;;;;1999.90;999.90;;;20.60;99.90;;;;;;5013917;28;20080;-85
2021/08/15 03:26:56;;;;;;;1999.90;999.90;;;20.50;99.90;;;;;;5013987;28;20424;-87
2021/08/15 03:29:22;;;;;;;1999.90;999.90;;;20.60;99.90;;;;;;5013828;28;20033;-86
2021/08/15 03:31:49;;;;;;;1999.90;999.90;;;20.60;99.90;;;;;;5013601;28;20080;-86
2021/08/15 03:34:19;;;;;;;1999.90;999.90;;;20.50;99.90;;;;;;5013859;28;20026;-85
2021/08/15 03:36:46;;;;;;;1999.90;999.90;;;20.50;99.90;;;;;;5013860;28;20022;-85
2021/08/15 03:39:13;;;;;;;1999.90;999.90;;;20.60;99.90;;;;;;5013882;28;20119;-84
2021/08/15 03:41:39;;;;;;;1999.90;999.90;;;20.60;99.90;;;;;;5013531;28;20018;-85
2021/08/15 03:44:05;;;;;;;1999.90;999.90;;;20.60;99.90;;;;;;5013931;28;20026;-85
2021/08/15 03:46:31;;;;;;;1999.90;999.90;;;20.60;99.90;;;;;;5013424;28;20044;-84
2021/08/15 03:48:57;;;;;;;1999.90;999.90;;;20.70;99.90;;;;;;5013428;28;20029;-85
2021/08/15 03:51:22;;;;;;;1999.90;999.90;;;20.70;99.90;;;;;;5013783;28;20022;-84
2021/08/15 03:53:48;;;;;;;1999.90;999.90;;;20.60;99.90;;;;;;5013444;28;20029;-85
2021/08/15 03:56:14;;;;;;;1999.90;999.90;;;20.60;99.90;;;;;;5013443;28;20088;-85
2021/08/15 03:58:40;;;;;;;1999.90;999.90;;;20.60;99.90;;;;;;5013348;28;20049;-85
2021/08/15 04:01:05;;;;;;;1999.90;999.90;;;20.70;99.90;;;;;;5013445;28;20026;-85
2021/08/15 04:03:31;;;;;;;1999.90;999.90;;;20.70;99.90;;;;;;5013250;28;20095;-85
2021/08/15 04:05:59;;;;;;;1999.90;999.90;;;20.60;99.90;;;;;;5013523;28;20121;-80
2021/08/15 04:08:26;;;;;;;1999.90;999.90;;;21.20;99.90;;;;;;5014147;28;20449;-78
2021/08/15 04:10:52;;;;;;;1999.90;999.90;;;21.50;99.90;;;;;;5017754;28;20026;-79
2021/08/15 04:13:18;;;;;;;1999.90;999.90;;;22.00;99.90;;;;;;5013033;28;20037;-79
2021/08/15 04:15:43;;;;;;;1999.90;999.90;;;22.60;99.90;;;;;;5013241;28;20058;-79
2021/08/15 04:18:09;;;;;;;1999.90;999.90;;;22.60;99.90;;;;;;5018130;28;20025;-84
2021/08/15 04:20:35;;;;;;;1999.90;999.90;;;22.70;99.90;;;;;;5016891;28;20033;-78
2021/08/15 04:23:01;;;;;;;1999.90;999.90;;;22.70;99.90;;;;;;5021532;28;20105;-77
2021/08/15 04:25:26;;;;;;;1999.90;999.90;;;22.40;99.90;;;;;;5016540;28;20038;-77
2021/08/15 04:27:52;;;;;;;1999.90;999.90;;;22.10;99.90;;;;;;5016996;28;20030;-78
2021/08/15 04:30:18;;;;;;;1999.90;999.90;;;22.60;99.90;;;;;;5016855;28;20033;-78
2021/08/15 04:32:43;;;;;;;1999.90;999.90;;;22.80;99.90;;;;;;5016474;28;20113;-77
2021/08/15 04:35:09;;;;;;;1999.90;999.90;;;22.70;99.90;;;;;;5016625;28;20083;-79
2021/08/15 04:37:35;;;;;;;1999.90;999.90;;;22.50;99.90;;;;;;5016611;28;20022;-78
2021/08/15 04:40:01;;;;;;;1999.90;999.90;;;22.20;99.90;;;;;;5016741;28;20095;-78
2021/08/15 04:42:27;;;;;;;1999.90;999.90;;;22.30;99.90;;;;;;5016638;28;20045;-82
2021/08/15 04:44:52;;;;;;;1999.90;999.90;;;22.50;99.90;;;;;;5016678;28;20026;-78
2021/08/15 04:47:18;;;;;;;1999.90;999.90;;;22.70;99.90;;;;;;5016737;28;20117;-78
2021/08/15 04:49:44;;;;;;;1999.90;999.90;;;22.70;99.90;;;;;;5016615;28;20116;-78
2021/08/15 04:52:10;;;;;;;1999.90;999.90;;;22.40;99.90;;;;;;5017690;28;20029;-83
2021/08/15 04:54:35;;;;;;;1999.90;999.90;;;22.90;99.90;;;;;;5016411;28;20022;-81
2021/08/15 04:57:01;;;;;;;1999.90;999.90;;;23.00;99.90;;;;;;5016352;28;20034;-78
2021/08/15 04:59:27;;;;;;;1999.90;999.90;;;22.90;99.90;;;;;;5016337;28;20025;-77
2021/08/15 05:01:53;;;;;;;1999.90;999.90;;;22.80;99.90;;;;;;5016495;28;20934;-78
2021/08/15 05:04:19;;;;;;;1999.90;999.90;;;22.70;99.90;;;;;;5016333;28;20093;-78
2021/08/15 05:06:45;;;;;;;1999.90;999.90;;;22.80;99.90;;;;;;5016374;28;20042;-82
2021/08/15 05:09:11;;;;;;;1999.90;999.90;;;22.80;99.90;;;;;;5017220;28;20141;-78
2021/08/15 05:11:38;;;;;;;1999.90;999.90;;;22.50;99.90;;;;;;5016165;28;20497;-78
2021/08/15 05:14:06;;;;;;;1999.90;999.90;;;22.20;99.90;;;;;;5016227;28;20032;-80
2021/08/15 05:16:32;;;;;;;1999.90;999.90;;;22.20;99.90;;;;;;5016027;28;20056;-78
2021/08/15 05:18:57;;;;;;;1999.90;999.90;;;22.30;99.90;;;;;;5017378;28;20069;-78
2021/08/15 05:21:23;;;;;;;1999.90;999.90;;;22.40;99.90;;;;;;5015660;28;20033;-83
2021/08/15 05:23:48;;;;;;;1999.90;999.90;;;22.50;99.90;;;;;;5015834;28;20022;-80
2021/08/15 05:26:14;;;;;;;1999.90;999.90;;;22.60;99.90;;;;;;5015929;28;20034;-80
2021/08/15 05:28:40;;;;;;;1999.90;999.90;;;22.70;99.90;;;;;;5015530;28;20034;-80
2021/08/15 05:31:05;;;;;;;1999.90;999.90;;;22.70;99.90;;;;;;5015860;28;20473;-81
2021/08/15 05:33:31;;;;;;;1999.90;999.90;;;22.50;99.90;;;;;;5016873;28;20056;-80
2021/08/15 05:35:57;;;;;;;1999.90;999.90;;;22.50;99.90;;;;;;5016926;28;20026;-80
2021/08/15 05:38:22;;;;;;;1999.90;999.90;;;22.50;99.90;;;;;;5016027;28;20109;-82
2021/08/15 05:40:48;;;;;;;1999.90;999.90;;;22.50;99.90;;;;;;5015925;28;20030;-80
2021/08/15 05:43:14;;;;;;;1999.90;999.90;;;22.40;99.90;;;;;;5016576;28;20038;-81
2021/08/15 05:45:39;;;;;;;1999.90;999.90;;;22.30;99.90;;;;;;5015691;28;20133;-80
2021/08/15 05:48:05;;;;;;;1999.90;999.90;;;22.40;99.90;;;;;;5015561;28;20033;-79
2021/08/15 05:50:31;;;;;;;1999.90;999.90;;;22.60;99.90;;;;;;5015377;28;20021;-81
2021/08/15 05:52:57;;;;;;;1999.90;999.90;;;22.50;99.90;;;;;;5015423;28;20030;-79
2021/08/15 05:55:23;;;;;;;1999.90;999.90;;;22.60;99.90;;;;;;5016564;28;20125;-77
2021/08/15 05:57:48;;;;;;;1999.90;999.90;;;22.60;99.90;;;;;;5015374;28;20154;-78
2021/08/15 06:00:15;;;;;;;1999.90;999.90;;;22.60;99.90;;;;;;5016497;28;20049;-78
2021/08/15 06:02:42;;;;;;;1999.90;999.90;;;22.70;99.90;;;;;;5015141;28;20103;-78
2021/08/15 06:05:09;;;;;;;1999.90;999.90;;;22.70;99.90;;;;;;5015097;28;20030;-77
2021/08/15 06:07:34;;;;;;;1999.90;999.90;;;22.70;99.90;;;;;;5015082;28;20112;-79
2021/08/15 06:10:00;;;;;;;1999.90;999.90;;;22.80;99.90;;;;;;5014741;28;20038;-77
2021/08/15 06:12:26;;;;;;;1999.90;999.90;;;23.00;99.90;;;;;;5014782;28;20029;-78
2021/08/15 06:14:52;;;;;;;1999.90;999.90;;;22.90;99.90;;;;;;5015000;28;20021;-78
2021/08/15 06:17:17;;;;;;;1999.90;999.90;;;23.00;99.90;;;;;;5014605;28;20496;-78
2021/08/15 06:19:43;;;;;;;1999.90;999.90;;;23.20;99.90;;;;;;5014463;28;20018;-78
2021/08/15 06:22:09;;;;;;;1999.90;999.90;;;23.10;99.90;;;;;;5015428;28;20025;-77
2021/08/15 06:24:36;;;;;;;1999.90;999.90;;;23.10;99.90;;;;;;5014661;28;20022;-78
2021/08/15 06:27:02;;;;;;;1999.90;999.90;;;23.00;99.90;;;;;;5014702;28;20057;-76
2021/08/15 06:29:29;;;;;;;1999.90;999.90;;;22.90;99.90;;;;;;5015187;28;20525;-76
2021/08/15 06:31:55;;;;;;;1999.90;999.90;;;23.20;99.90;;;;;;5014067;28;20108;-77
2021/08/15 06:34:20;;;;;;;1999.90;999.90;;;23.20;99.90;;;;;;5015270;28;20017;-77
2021/08/15 06:36:46;;;;;;;1999.90;999.90;;;23.30;99.90;;;;;;5014162;28;20540;-76
2021/08/15 06:39:12;;;;;;;1999.90;999.90;;;23.40;99.90;;;;;;5012969;28;20497;-76
2021/08/15 06:41:38;;;;;;;1999.90;999.90;;;23.40;99.90;;;;;;5014973;28;20033;-78
2021/08/15 06:44:03;;;;;;;1999.90;999.90;;;23.50;99.90;;;;;;5013487;28;20029;-78
2021/08/15 06:46:29;;;;;;;1999.90;999.90;;;23.60;99.90;;;;;;5013695;28;20448;-77
2021/08/15 06:48:55;;;;;;;1999.90;999.90;;;23.60;99.90;;;;;;5013580;28;20026;-77
2021/08/15 06:51:20;;;;;;;1999.90;999.90;;;23.60;99.90;;;;;;5014815;28;20382;-76
2021/08/15 06:53:46;;;;;;;1999.90;999.90;;;23.80;99.90;;;;;;5013347;28;20029;-76
2021/08/15 06:56:12;;;;;;;1999.90;999.90;;;23.90;99.90;;;;;;5013662;28;20026;-76
2021/08/15 06:58:37;;;;;;;1999.90;999.90;;;23.80;99.90;;;;;;5013756;28;20032;-75
2021/08/15 07:01:03;;;;;;;1999.90;999.90;;;23.70;99.90;;;;;;5013726;28;20026;-76
2021/08/15 07:03:30;;;;;;;1999.90;999.90;;;23.70;99.90;;;;;;5013106;28;20144;-78
2021/08/15 07:05:56;;;;;;;1999.90;999.90;;;23.70;99.90;;;;;;5013270;28;20478;-76
2021/08/15 07:08:22;;;;;;;1999.90;999.90;;;23.80;99.90;;;;;;5013547;28;20446;-76
2021/08/15 07:10:48;;;;;;;1999.90;999.90;;;23.80;99.90;;;;;;5013359;28;20061;-76
2021/08/15 07:13:16;;;;;;;1999.90;999.90;;;23.90;99.90;;;;;;5013183;28;20033;-76
2021/08/15 07:15:42;;;;;;;1999.90;999.90;;;23.80;99.90;;;;;;5013304;28;20030;-76
2021/08/15 07:18:08;;;;;;;1999.90;999.90;;;23.80;99.90;;;;;;5012936;28;20470;-76
2021/08/15 07:20:33;;;;;;;1999.90;999.90;;;23.90;99.90;;;;;;5013145;28;20374;-76
2021/08/15 07:22:59;;;;;;;1999.90;999.90;;;24.20;99.90;;;;;;5013876;28;20026;-76
2021/08/15 07:25:28;;;;;;;1999.90;999.90;;;24.30;99.90;;;;;;5012841;28;20042;-76
2021/08/15 07:27:57;;;;;;;1999.90;999.90;;;24.40;99.90;;;;;;5013481;28;20070;-76
2021/08/15 07:30:24;;;;;;;1999.90;999.90;;;24.50;99.90;;;;;;5013554;28;20113;-78
2021/08/15 07:32:53;;;;;;;1999.90;999.90;;;24.60;99.90;;;;;;5013104;28;20080;-77
2021/08/15 07:35:19;;;;;;;1999.90;999.90;;;24.70;99.90;;;;;;5013162;28;20556;-76
2021/08/15 07:37:45;;;;;;;1999.90;999.90;;;24.80;99.90;;;;;;5013061;28;20122;-77
2021/08/15 07:40:12;;;;;;;1999.90;999.90;;;24.80;99.90;;;;;;5013151;28;20057;-78
2021/08/15 07:42:37;;;;;;;1999.90;999.90;;;24.80;99.90;;;;;;5013245;28;20049;-77
2021/08/15 07:45:04;;;;;;;1999.90;999.90;;;24.90;99.90;;;;;;5013328;28;20454;-79
2021/08/15 07:47:29;;;;;;;1999.90;999.90;;;25.00;99.90;;;;;;5012993;28;20026;-80
2021/08/15 07:49:55;;;;;;;1999.90;999.90;;;25.10;99.90;;;;;;5013270;28;20032;-80
2021/08/15 07:52:20;;;;;;;1999.90;999.90;;;25.10;99.90;;;;;;5013526;28;20053;-79
2021/08/15 07:54:46;;;;;;;1999.90;999.90;;;25.20;99.90;;;;;;5014829;28;20041;-80
2021/08/15 07:57:12;;;;;;;1999.90;999.90;;;25.10;99.90;;;;;;5013528;28;20032;-80
2021/08/15 07:59:37;;;;;;;1999.90;999.90;;;25.10;99.90;;;;;;5013442;28;20026;-80
2021/08/15 08:02:04;;;;;;;1999.90;999.90;;;25.10;99.90;;;;;;5013176;28;20030;-80
2021/08/15 08:04:29;;;;;;;1999.90;999.90;;;25.10;99.90;;;;;;5012944;28;20056;-77
2021/08/15 08:06:57;;;;;;;1999.90;999.90;;;25.30;99.90;;;;;;5012822;28;20046;-77
2021/08/15 08:09:23;;;;;;;1999.90;999.90;;;25.50;99.90;;;;;;5012701;28;20045;-77
2021/08/15 08:11:49;;;;;;;1999.90;999.90;;;25.60;99.90;;;;;;5012830;28;20466;-77
2021/08/15 08:14:15;;;;;;;1999.90;999.90;;;25.90;99.90;;;;;;5012885;28;20433;-79
2021/08/15 08:16:41;;;;;;;1999.90;999.90;;;26.10;99.90;;;;;;5013832;28;20022;-79
2021/08/15 08:19:07;;;;;;;1999.90;999.90;;;26.20;99.90;;;;;;5012548;28;20453;-77
2021/08/15 08:21:32;;;;;;;1999.90;999.90;;;26.30;99.90;;;;;;5012567;28;20028;-78
2021/08/15 08:23:58;;;;;;;1999.90;999.90;;;26.40;99.90;;;;;;5012281;28;20030;-79
2021/08/15 08:26:24;;;;;;;1999.90;999.90;;;26.40;99.90;;;;;;5012632;28;20041;-78
2021/08/15 08:28:49;;;;;;;1999.90;999.90;;;26.50;99.90;;;;;;5012898;28;20029;-77
2021/08/15 08:31:15;;;;;;;1999.90;999.90;;;26.60;99.90;;;;;;5012482;28;20088;-76
2021/08/15 08:33:41;;;;;;;1999.90;999.90;;;26.60;99.90;;;;;;5012111;28;20021;-77
2021/08/15 08:36:06;;;;;;;1999.90;999.90;;;26.60;99.90;;;;;;5012802;28;20385;-79
2021/08/15 08:38:32;;;;;;;1999.90;999.90;;;26.60;99.90;;;;;;5012772;28;20034;-78
2021/08/15 08:40:59;;;;;;;1999.90;999.90;;;26.60;99.90;;;;;;5012694;28;20072;-77
2021/08/15 08:43:26;;;;;;;1999.90;999.90;;;26.70;99.90;;;;;;5012426;28;20045;-78
2021/08/15 08:45:54;;;;;;;1999.90;999.90;;;26.70;99.90;;;;;;5013719;28;20033;-79
2021/08/15 08:48:20;;;;;;;1999.90;999.90;;;26.80;99.90;;;;;;5012497;28;20062;-78
2021/08/15 08:50:50;;;;;;;1999.90;999.90;;;27.20;99.90;;;;;;5012453;28;20120;-77
2021/08/15 08:53:16;;;;;;;1999.90;999.90;;;27.40;99.90;;;;;;5012146;28;20026;-78
2021/08/15 08:55:42;;;;;;;1999.90;999.90;;;27.50;99.70;;;;;;5012285;28;20505;-77
2021/08/15 08:58:08;;;;;;;1999.90;999.90;;;27.70;99.70;;;;;;5012048;28;20112;-78
2021/08/15 09:00:34;;;;;;;1999.90;999.90;;;27.90;99.00;;;;;;5012434;28;20033;-78
2021/08/15 09:02:59;;;;;;;1999.90;999.90;;;28.00;95.00;;;;;;5013602;28;20046;-78
2021/08/15 09:05:33;;;;;;;1999.90;999.90;;;28.00;94.30;;;;;;5017210;28;20120;-78
2021/08/15 09:07:59;;;;;;;1999.90;999.90;;;27.90;93.40;;;;;;5016137;28;20033;-78
2021/08/15 09:10:47;;;;;;;1999.90;999.90;;;27.70;94.20;;;;;;5016644;28;20026;-88
2021/08/15 09:13:25;;;;;;;1999.90;999.90;;;27.60;91.60;;;;;;5017989;28;20116;-80
2021/08/15 09:15:56;;;;;;;1999.90;999.90;;;27.60;92.80;;;;;;5016378;28;20029;-78
2021/08/15 09:18:32;;;;;;;1999.90;999.90;;;27.60;95.90;;;;;;5015507;28;20034;-77
2021/08/15 09:20:58;;;;;;;1999.90;999.90;;;27.50;96.50;;;;;;5015311;28;20030;-80
2021/08/15 09:23:32;;;;;;;1999.90;999.90;;;27.60;97.90;;;;;;5016025;28;20113;-81
2021/08/15 09:26:21;;;;;;;1999.90;999.90;;;27.60;94.30;;;;;;5015723;28;20033;-80
2021/08/15 09:28:48;;;;;;;1999.90;999.90;;;27.60;95.20;;;;;;5015413;28;20025;-80
2021/08/15 09:31:24;;;;;;;1999.90;999.90;;;27.70;98.40;;;;;;5016682;28;20022;-80
2021/08/15 09:33:51;;;;;;;1999.90;999.90;;;28.00;94.90;;;;;;5016567;28;20048;-79
2021/08/15 09:36:39;;;;;;;1999.90;999.90;;;28.30;93.20;;;;;;5016676;28;20040;-79
2021/08/15 09:39:06;;;;;;;1999.90;999.90;;;28.60;92.10;;;;;;5016612;28;20029;-80
2021/08/15 09:41:37;;;;;;;1999.90;999.90;;;28.60;90.30;;;;;;5015471;28;20033;-79
2021/08/15 09:44:18;;;;;;;1999.90;999.90;;;28.70;90.50;;;;;;5016709;28;20022;-78
2021/08/15 09:47:00;;;;;;;1999.90;999.90;;;28.90;92.10;;;;;;5017254;28;20485;-78
2021/08/15 09:49:37;;;;;;;1999.90;999.90;;;29.10;92.00;;;;;;5015475;28;20026;-78
2021/08/15 09:52:03;;;;;;;1999.90;999.90;;;29.30;94.80;;;;;;5016317;28;20029;-79
2021/08/15 09:54:31;;;;;;;1999.90;999.90;;;29.40;92.90;;;;;;5016281;28;20022;-79
2021/08/15 09:56:57;;;;;;;1999.90;999.90;;;29.40;92.10;;;;;;5016368;28;20018;-78
2021/08/15 09:59:24;;;;;;;1999.90;999.90;;;29.60;90.70;;;;;;5014834;28;20080;-78
2021/08/15 10:01:54;;;;;;;1999.90;999.90;;;29.50;91.20;;;;;;5015533;28;20022;-79
2021/08/15 10:04:23;;;;;;;1999.90;999.90;;;29.60;90.10;;;;;;5014207;28;20054;-77
2021/08/15 10:06:51;;;;;;;1999.90;999.90;;;29.70;88.10;;;;;;5014526;28;20060;-76
2021/08/15 10:09:19;;;;;;;1999.90;999.90;;;29.70;85.00;;;;;;5015517;28;20032;-76
2021/08/15 10:11:45;;;;;;;1999.90;999.90;;;29.90;87.10;;;;;;5015403;28;20133;-76
2021/08/15 10:14:12;;;;;;;1999.90;999.90;;;30.00;89.00;;;;;;5013319;28;20022;-78
2021/08/15 10:16:45;;;;;;;1999.90;999.90;;;29.80;83.70;;;;;;5013743;28;20061;-77
2021/08/15 10:19:15;;;;;;;1999.90;999.90;;;29.90;86.60;;;;;;5014077;28;20021;-78
2021/08/15 10:21:44;;;;;;;1999.90;999.90;;;30.30;85.80;;;;;;5014306;28;20125;-78
2021/08/15 10:24:11;;;;;;;1999.90;999.90;;;30.30;81.30;;;;;;5013846;28;20488;-77
2021/08/15 10:26:40;;;;;;;1999.90;999.90;;;30.70;84.30;;;;;;5015027;28;20528;-77
2021/08/15 10:29:33;;;;;;;1999.90;999.90;;;31.10;84.60;;;;;;5013989;28;20542;-76
2021/08/15 10:32:14;;;;;;;1999.90;999.90;;;31.30;82.60;;;;;;5013835;28;20022;-77
2021/08/15 10:34:51;;;;;;;1999.90;999.90;;;31.20;79.20;;;;;;5015043;28;20079;-77
2021/08/15 10:37:26;;;;;;;1999.90;999.90;;;31.40;78.10;;;;;;5014972;28;20035;-77
2021/08/15 10:40:03;;;;;;;1999.90;999.90;;;31.40;74.90;;;;;;5013738;28;20389;-78
2021/08/15 10:42:46;;;;;;;1999.90;999.90;;;31.50;71.30;;;;;;5013570;28;20030;-78
2021/08/15 10:45:32;;;;;;;1999.90;999.90;;;31.40;70.80;;;;;;5013492;28;20033;-77
2021/08/15 10:48:12;;;;;;;1999.90;999.90;;;31.30;70.30;;;;;;5013325;28;20034;-79
2021/08/15 10:50:44;;;;;;;1999.90;999.90;;;31.20;70.50;;;;;;5013976;28;20120;-78
2021/08/15 10:53:31;;;;;;;1999.90;999.90;;;31.40;71.20;;;;;;5013712;28;20117;-77
2021/08/15 10:55:59;;;;;;;1999.90;999.90;;;31.30;70.00;;;;;;5013743;28;20135;-79
2021/08/15 10:58:42;;;;;;;1999.90;999.90;;;31.40;69.40;;;;;;5013568;28;20072;-79
2021/08/15 11:01:10;;;;;;;1999.90;999.90;;;31.60;70.40;;;;;;5013365;28;20037;-76
2021/08/15 11:03:55;;;;;;;1999.90;999.90;;;31.40;68.40;;;;;;5012412;28;20389;-77
2021/08/15 11:06:41;;;;;;;1999.90;999.90;;;31.50;69.20;;;;;;5012805;28;20041;-77
2021/08/15 11:09:09;;;;;;;1999.90;999.90;;;31.60;70.60;;;;;;5012711;28;20029;-79
2021/08/15 11:11:41;;;;;;;1999.90;999.90;;;31.70;71.10;;;;;;5012628;28;20109;-78
2021/08/15 11:14:19;;;;;;;1999.90;999.90;;;31.60;71.40;;;;;;5012563;28;20494;-78
2021/08/15 11:16:46;;;;;;;1999.90;999.90;;;31.40;71.00;;;;;;5011946;28;20026;-76
2021/08/15 11:19:12;;;;;;;1999.90;999.90;;;31.40;71.40;;;;;;5012831;28;20022;-84
2021/08/15 11:22:04;;;;;;;1999.90;999.90;;;31.30;69.90;;;;;;5013858;28;20033;-82
2021/08/15 11:24:54;;;;;;;1999.90;999.90;;;31.30;69.50;;;;;;5013946;28;20445;-80
2021/08/15 11:27:23;;;;;;;1999.90;999.90;;;31.10;69.00;;;;;;5013719;28;20025;-80
2021/08/15 11:29:50;;;;;;;1999.90;999.90;;;31.10;72.40;;;;;;5013809;28;20026;-82
2021/08/15 11:32:28;;;;;;;1999.90;999.90;;;31.20;73.00;;;;;;5013622;28;20026;-79
2021/08/15 11:34:54;;;;;;;1999.90;999.90;;;31.30;72.70;;;;;;5013573;28;20112;-82
2021/08/15 11:37:22;;;;;;;1999.90;999.90;;;31.50;74.20;;;;;;5013553;28;20119;-81
2021/08/15 11:39:49;;;;;;;1999.90;999.90;;;31.70;73.60;;;;;;5013671;28;20190;-81
2021/08/15 11:42:23;;;;;;;1999.90;999.90;;;31.80;73.00;;;;;;5013341;28;20037;-81
2021/08/15 11:44:51;;;;;;;1999.90;999.90;;;32.00;72.50;;;;;;5013491;28;20022;-81
2021/08/15 11:47:22;;;;;;;1999.90;999.90;;;32.00;73.20;;;;;;5013337;28;20030;-81
2021/08/15 11:49:47;;;;;;;1999.90;999.90;;;31.70;72.80;;;;;;5013302;28;20033;-82
2021/08/15 11:52:15;;;;;;;1999.90;999.90;;;31.80;72.30;;;;;;5013255;28;20043;-82
2021/08/15 11:54:41;;;;;;;1999.90;999.90;;;31.80;70.80;;;;;;5013391;28;20025;-82
2021/08/15 11:57:11;;;;;;;1999.90;999.90;;;31.80;71.20;;;;;;5013325;28;20026;-81
2021/08/15 12:00:04;;;;;;;1999.90;999.90;;;31.70;72.80;;;;;;5013433;28;20112;-82
2021/08/15 12:02:30;;;;;;;1999.90;999.90;;;31.70;72.20;;;;;;5007117;28;20497;-82